createdAt,value
2022-11-08T00:00:08.336Z,90.03
2022-11-08T00:02:55.831Z,90.04
2022-11-08T00:05:41.435Z,89.93
2022-11-08T00:08:27.012Z,90.21
2022-11-08T00:11:12.548Z,90.67
2022-11-08T00:13:58.586Z,91.24
2022-11-08T00:16:26.196Z,91.34
2022-11-08T00:18:53.418Z,90.72
2022-11-08T00:21:20.310Z,91.09
2022-11-08T00:23:47.661Z,91.38
2022-11-08T00:26:14.534Z,90.99
2022-11-08T00:28:41.793Z,91.18
2022-11-08T00:31:08.641Z,91.68
2022-11-08T00:33:35.951Z,91.64
2022-11-08T00:36:03.888Z,91.88
2022-11-08T00:38:31.288Z,92.30
2022-11-08T00:40:58.416Z,92.28
2022-11-08T00:43:25.662Z,93.04
2022-11-08T00:45:52.558Z,93.14
2022-11-08T00:48:20.055Z,93.19
2022-11-08T00:50:47.230Z,93.11
2022-11-08T00:53:14.412Z,93.61
2022-11-08T00:55:41.367Z,93.59
2022-11-08T00:58:08.850Z,93.72
2022-11-08T01:00:35.779Z,93.36
2022-11-08T01:03:21.348Z,94.00
2022-11-08T01:05:49.325Z,94.27
2022-11-08T01:08:17.515Z,95.29
2022-11-08T01:10:45.756Z,95.18
2022-11-08T01:13:13.559Z,95.04
2022-11-08T01:15:41.797Z,95.37
2022-11-08T01:18:10.282Z,95.16
2022-11-08T01:20:40.471Z,95.37
2022-11-08T01:23:08.138Z,95.99
2022-11-08T01:25:38.746Z,95.47
2022-11-08T01:28:06.064Z,96.32
2022-11-08T01:30:36.022Z,95.97
2022-11-08T01:33:03.486Z,95.57
2022-11-08T01:35:31.960Z,96.73
2022-11-08T01:37:59.870Z,96.76
2022-11-08T01:40:27.961Z,96.86
2022-11-08T01:42:55.439Z,96.77
2022-11-08T01:45:40.906Z,96.60
2022-11-08T01:48:08.131Z,96.88
2022-11-08T01:50:34.999Z,97.22
2022-11-08T01:53:02.243Z,98.73
2022-11-08T01:55:36.382Z,98.33
2022-11-08T01:58:06.759Z,98.36
2022-11-08T02:00:34.326Z,98.17
2022-11-08T02:03:01.940Z,98.77
2022-11-08T02:05:29.824Z,98.66
2022-11-08T02:07:57.160Z,98.05
2022-11-08T02:10:26.481Z,97.37
2022-11-08T02:12:54.362Z,98.25
2022-11-08T02:15:23.295Z,99.21
2022-11-08T02:17:50.198Z,98.66
2022-11-08T02:20:17.813Z,98.36
2022-11-08T02:22:55.341Z,98.10
2022-11-08T02:25:22.646Z,98.58
2022-11-08T02:27:49.527Z,98.60
2022-11-08T02:30:16.783Z,99.17
2022-11-08T02:32:43.794Z,99.68
2022-11-08T02:35:13.881Z,98.86
2022-11-08T02:37:41.300Z,99.73
2022-11-08T02:40:08.908Z,99.75
2022-11-08T02:42:37.710Z,100.00
2022-11-08T02:45:05.906Z,100.00
2022-11-08T02:47:33.061Z,100.00
2022-11-08T02:50:00.467Z,100.00
2022-11-08T02:52:27.349Z,100.00
2022-11-08T02:54:54.898Z,100.00
2022-11-08T02:57:21.740Z,100.00
2022-11-08T02:59:49.441Z,100.00
2022-11-08T03:02:16.466Z,100.00
2022-11-08T03:04:43.763Z,100.00
2022-11-08T03:07:10.625Z,100.00
2022-11-08T03:09:38.010Z,100.00
2022-11-08T03:12:04.967Z,100.00
2022-11-08T03:14:32.293Z,100.00
2022-11-08T03:16:59.190Z,100.00
2022-11-08T03:19:26.405Z,100.00
2022-11-08T03:21:53.271Z,100.00
2022-11-08T03:24:20.564Z,100.00
2022-11-08T03:26:47.703Z,100.00
2022-11-08T03:29:14.937Z,100.00
2022-11-08T03:31:41.811Z,100.00
2022-11-08T03:34:10.506Z,100.00
2022-11-08T03:36:37.461Z,100.00
2022-11-08T03:39:04.677Z,100.00
2022-11-08T03:41:31.534Z,100.00
2022-11-08T03:43:58.824Z,100.00
2022-11-08T03:46:25.701Z,100.00
2022-11-08T03:48:52.921Z,100.00
2022-11-08T03:51:19.839Z,100.00
2022-11-08T03:53:47.076Z,100.00
2022-11-08T03:56:14.041Z,100.00
2022-11-08T03:58:41.453Z,100.00
2022-11-08T04:01:08.529Z,100.00
2022-11-08T04:03:36.052Z,100.00
2022-11-08T04:06:03.414Z,100.00
2022-11-08T04:08:30.896Z,100.00
2022-11-08T04:11:18.287Z,100.00
2022-11-08T04:14:04.946Z,100.00
2022-11-08T04:16:32.716Z,100.00
2022-11-08T04:19:19.079Z,100.00
2022-11-08T04:21:47.487Z,100.00
2022-11-08T04:24:14.701Z,100.00
2022-11-08T04:26:41.706Z,100.00
2022-11-08T04:29:09.054Z,100.00
2022-11-08T04:31:36.242Z,100.00
2022-11-08T04:34:03.495Z,100.00
2022-11-08T04:36:30.490Z,100.00
2022-11-08T04:38:57.791Z,100.00
2022-11-08T04:41:25.662Z,100.00
2022-11-08T04:43:54.355Z,100.00
2022-11-08T04:46:25.486Z,100.00
2022-11-08T04:48:54.124Z,100.00
2022-11-08T04:51:23.105Z,100.00
2022-11-08T04:53:51.064Z,100.00
2022-11-08T04:56:19.802Z,100.00
2022-11-08T04:58:48.195Z,100.00
2022-11-08T05:01:19.230Z,100.00
2022-11-08T05:03:47.354Z,100.00
2022-11-08T05:06:16.308Z,100.00
2022-11-08T05:08:43.643Z,100.00
2022-11-08T05:11:12.115Z,100.00
2022-11-08T05:13:39.429Z,100.00
2022-11-08T05:16:08.028Z,100.00
2022-11-08T05:18:35.256Z,100.00
2022-11-08T05:21:20.801Z,100.00
2022-11-08T05:23:48.822Z,100.00
2022-11-08T05:26:16.322Z,100.00
2022-11-08T05:28:43.573Z,100.00
2022-11-08T05:31:10.548Z,100.00
2022-11-08T05:33:37.828Z,100.00
2022-11-08T05:36:06.374Z,100.00
2022-11-08T05:38:33.855Z,100.00
2022-11-08T05:41:04.861Z,100.00
2022-11-08T05:43:32.317Z,100.00
2022-11-08T05:45:59.421Z,100.00
2022-11-08T05:48:26.721Z,100.00
2022-11-08T05:50:54.038Z,100.00
2022-11-08T05:53:21.740Z,100.00
2022-11-08T05:55:49.456Z,100.00
2022-11-08T05:58:17.139Z,100.00
2022-11-08T06:00:44.076Z,100.00
2022-11-08T06:03:11.441Z,100.00
2022-11-08T06:05:38.520Z,100.00
2022-11-08T06:08:05.735Z,100.00
2022-11-08T06:10:32.747Z,100.00
2022-11-08T06:13:01.118Z,100.00
2022-11-08T06:15:28.357Z,100.00
2022-11-08T06:17:55.657Z,100.00
2022-11-08T06:20:22.615Z,100.00
2022-11-08T06:22:50.295Z,100.00
2022-11-08T06:25:17.211Z,100.00
2022-11-08T06:27:44.592Z,100.00
2022-11-08T06:30:11.733Z,100.00
2022-11-08T06:32:39.017Z,100.00
2022-11-08T06:35:06.360Z,100.00
2022-11-08T06:37:33.671Z,100.00
2022-11-08T06:40:00.548Z,100.00
2022-11-08T06:42:27.827Z,100.00
2022-11-08T06:44:54.774Z,100.00
2022-11-08T06:47:21.990Z,100.00
2022-11-08T06:49:49.082Z,100.00
2022-11-08T06:52:16.470Z,100.00
2022-11-08T06:54:43.463Z,100.00
2022-11-08T06:57:10.907Z,100.00
2022-11-08T06:59:38.988Z,100.00
2022-11-08T07:02:07.086Z,100.00
2022-11-08T07:04:34.196Z,100.00
2022-11-08T07:07:01.609Z,100.00
2022-11-08T07:09:28.501Z,100.00
2022-11-08T07:11:56.124Z,100.00
2022-11-08T07:14:22.932Z,100.00
2022-11-08T07:16:50.079Z,100.00
2022-11-08T07:19:17.003Z,100.00
2022-11-08T07:21:44.185Z,100.00
2022-11-08T07:24:11.197Z,100.00
2022-11-08T07:26:38.497Z,100.00
2022-11-08T07:29:05.335Z,100.00
2022-11-08T07:31:32.525Z,100.00
2022-11-08T07:33:59.419Z,100.00
2022-11-08T07:36:26.553Z,100.00
2022-11-08T07:38:53.456Z,100.00
2022-11-08T07:41:20.652Z,100.00
2022-11-08T07:43:48.774Z,100.00
2022-11-08T07:46:16.072Z,100.00
2022-11-08T07:48:43.179Z,100.00
2022-11-08T07:51:10.364Z,100.00
2022-11-08T07:53:37.236Z,100.00
2022-11-08T07:56:04.639Z,100.00
2022-11-08T07:58:31.490Z,100.00
2022-11-08T08:01:03.446Z,100.00
2022-11-08T08:03:30.498Z,100.00
2022-11-08T08:06:00.951Z,100.00
2022-11-08T08:08:29.107Z,99.91
2022-11-08T08:10:57.552Z,99.43
2022-11-08T08:13:24.410Z,98.37
2022-11-08T08:15:51.609Z,96.54
2022-11-08T08:18:21.053Z,95.13
2022-11-08T08:20:48.510Z,94.22
2022-11-08T08:23:15.615Z,92.70
2022-11-08T08:25:42.973Z,90.87
2022-11-08T08:28:10.511Z,89.61
2022-11-08T08:30:38.239Z,90.11
2022-11-08T08:33:27.367Z,88.93
2022-11-08T08:35:55.421Z,88.83
2022-11-08T08:38:22.320Z,88.25
2022-11-08T08:40:50.107Z,87.79
2022-11-08T08:43:17.367Z,86.66
2022-11-08T08:45:44.940Z,86.35
2022-11-08T08:48:11.785Z,85.21
2022-11-08T08:50:38.941Z,84.59
2022-11-08T08:53:05.907Z,84.44
2022-11-08T08:55:35.310Z,82.44
2022-11-08T08:58:02.250Z,80.12
2022-11-08T09:03:16.695Z,82.48
2022-11-08T09:05:46.780Z,82.13
2022-11-08T09:08:14.674Z,82.69
2022-11-08T09:10:42.347Z,82.15
2022-11-08T09:13:09.417Z,82.51
2022-11-08T09:15:36.595Z,81.66
2022-11-08T09:18:03.551Z,81.70
2022-11-08T09:20:30.949Z,81.57
2022-11-08T09:23:01.247Z,81.11
2022-11-08T09:25:28.648Z,80.39
2022-11-08T09:27:56.088Z,79.40
2022-11-08T09:30:23.359Z,79.71
2022-11-08T09:33:02.023Z,79.51
2022-11-08T09:35:30.360Z,79.50
2022-11-08T09:37:57.508Z,80.41
2022-11-08T09:40:30.961Z,80.06
2022-11-08T09:43:18.692Z,79.65
2022-11-08T09:45:50.052Z,79.94
2022-11-08T09:48:22.248Z,78.43
2022-11-08T09:50:52.359Z,78.67
2022-11-08T09:53:19.552Z,77.70
2022-11-08T09:55:46.753Z,77.67
2022-11-08T09:58:27.440Z,78.48
2022-11-08T10:00:54.784Z,78.22
2022-11-08T10:03:24.101Z,78.44
2022-11-08T10:05:54.384Z,76.77
2022-11-08T10:08:26.748Z,77.68
2022-11-08T10:10:58.380Z,78.42
2022-11-08T10:13:43.238Z,78.26
2022-11-08T10:16:10.415Z,78.50
2022-11-08T10:18:40.553Z,78.25
2022-11-08T10:21:13.601Z,77.56
2022-11-08T10:23:46.566Z,77.78
2022-11-08T10:26:24.140Z,77.95
2022-11-08T10:29:07.716Z,78.21
2022-11-08T10:31:35.700Z,78.01
2022-11-08T10:34:10.255Z,77.85
2022-11-08T10:36:42.108Z,76.54
2022-11-08T10:39:09.242Z,76.72
2022-11-08T10:41:43.215Z,76.37
2022-11-08T10:44:15.984Z,76.28
2022-11-08T10:46:47.416Z,75.96
2022-11-08T10:49:14.553Z,75.40
2022-11-08T10:51:42.931Z,74.91
2022-11-08T10:54:30.043Z,73.99
2022-11-08T10:56:57.096Z,72.61
2022-11-08T10:59:29.910Z,73.80
2022-11-08T11:01:56.808Z,74.88
2022-11-08T11:04:28.591Z,74.20
2022-11-08T11:06:55.534Z,73.45
2022-11-08T11:09:26.957Z,73.43
2022-11-08T11:11:58.215Z,74.74
2022-11-08T11:14:25.784Z,74.50
2022-11-08T11:16:55.812Z,74.44
2022-11-08T11:19:23.880Z,73.88
2022-11-08T11:21:56.227Z,73.43
2022-11-08T11:24:23.596Z,74.42
2022-11-08T11:26:56.843Z,75.53
2022-11-08T11:29:27.619Z,74.46
2022-11-08T11:31:55.084Z,74.05
2022-11-08T11:34:27.707Z,75.14
2022-11-08T11:37:15.523Z,74.26
2022-11-08T11:39:54.705Z,73.66
2022-11-08T11:42:45.184Z,73.82
2022-11-08T11:45:21.727Z,73.69
2022-11-08T11:47:54.422Z,73.20
2022-11-08T11:50:29.799Z,73.20
2022-11-08T11:52:58.736Z,74.25
2022-11-08T11:55:43.032Z,74.14
2022-11-08T11:58:29.172Z,73.60
2022-11-08T12:01:02.161Z,73.40
2022-11-08T12:03:43.809Z,74.03
2022-11-08T12:06:10.937Z,72.92
2022-11-08T12:08:47.688Z,73.29
2022-11-08T12:11:28.116Z,73.12
2022-11-08T12:14:07.204Z,73.18
2022-11-08T12:16:42.115Z,73.04
2022-11-08T12:19:15.076Z,72.67
2022-11-08T12:21:41.901Z,72.66
2022-11-08T12:24:27.039Z,73.08
2022-11-08T12:27:12.919Z,72.53
2022-11-08T12:30:03.569Z,73.97
2022-11-08T12:32:33.755Z,74.07
2022-11-08T12:35:00.544Z,73.49
2022-11-08T12:37:39.707Z,73.96
2022-11-08T12:40:17.581Z,73.27
2022-11-08T12:43:00.248Z,72.79
2022-11-08T12:45:46.070Z,71.66
2022-11-08T12:48:12.886Z,72.83
2022-11-08T12:50:45.776Z,73.11
2022-11-08T12:53:12.585Z,73.14
2022-11-08T12:55:42.047Z,72.93
2022-11-08T12:58:24.652Z,72.38
2022-11-08T13:00:53.183Z,73.48
2022-11-08T13:03:29.635Z,73.30
2022-11-08T13:06:04.788Z,73.29
2022-11-08T13:08:39.029Z,73.55
2022-11-08T13:11:09.224Z,74.12
2022-11-08T13:13:50.584Z,73.51
2022-11-08T13:16:21.755Z,72.71
2022-11-08T13:18:56.203Z,73.12
2022-11-08T13:21:26.025Z,72.71
2022-11-08T13:23:53.860Z,73.36
2022-11-08T13:26:27.045Z,73.03
2022-11-08T13:28:54.346Z,73.06
2022-11-08T13:31:40.705Z,71.84
2022-11-08T13:34:13.986Z,71.46
2022-11-08T13:37:12.969Z,71.07
2022-11-08T13:39:40.110Z,70.51
2022-11-08T13:42:16.265Z,69.21
2022-11-08T13:44:52.640Z,69.23
2022-11-08T13:47:31.800Z,69.08
2022-11-08T13:50:17.488Z,70.09
2022-11-08T13:52:44.401Z,70.80
2022-11-08T13:55:30.119Z,71.08
2022-11-08T13:57:58.682Z,72.56
2022-11-08T14:00:43.461Z,72.65
2022-11-08T14:03:29.122Z,73.27
2022-11-08T14:05:56.851Z,73.28
2022-11-08T14:08:24.546Z,73.74
2022-11-08T14:11:14.405Z,73.85
2022-11-08T14:14:11.649Z,73.81
2022-11-08T14:16:45.036Z,73.69
2022-11-08T14:19:17.787Z,73.81
2022-11-08T14:21:49.895Z,74.00
2022-11-08T14:24:19.138Z,73.26
2022-11-08T14:26:46.995Z,73.33
2022-11-08T14:29:22.128Z,73.85
2022-11-08T14:32:00.506Z,73.61
2022-11-08T14:34:28.442Z,73.19
2022-11-08T14:36:56.350Z,74.15
2022-11-08T14:39:28.904Z,73.64
2022-11-08T14:41:57.655Z,73.74
2022-11-08T14:44:25.050Z,74.06
2022-11-08T14:46:53.236Z,73.86
2022-11-08T14:49:21.566Z,74.36
2022-11-08T14:52:07.252Z,74.29
2022-11-08T14:54:39.468Z,74.98
2022-11-08T14:57:26.837Z,75.30
2022-11-08T14:59:56.484Z,75.60
2022-11-08T15:02:24.904Z,75.72
2022-11-08T15:04:52.083Z,76.10
2022-11-08T15:07:20.781Z,76.45
2022-11-08T15:09:48.907Z,77.15
2022-11-08T15:12:20.956Z,76.70
2022-11-08T15:14:50.972Z,76.86
2022-11-08T15:17:31.700Z,77.09
2022-11-08T15:20:06.120Z,77.56
2022-11-08T15:22:35.389Z,77.97
2022-11-08T15:25:14.886Z,78.14
2022-11-08T15:27:54.728Z,77.87
2022-11-08T15:30:23.050Z,78.24
2022-11-08T15:32:50.688Z,77.67
2022-11-08T15:35:29.764Z,77.56
2022-11-08T15:38:04.315Z,77.50
2022-11-08T15:40:32.580Z,77.57
2022-11-08T15:43:00.281Z,77.87
2022-11-08T15:45:29.013Z,77.68
2022-11-08T15:48:08.603Z,77.79
2022-11-08T15:50:35.439Z,77.61
2022-11-08T15:53:03.407Z,78.22
2022-11-08T15:55:38.077Z,78.52
2022-11-08T15:58:10.731Z,77.90
2022-11-08T16:00:38.463Z,78.19
2022-11-08T16:03:05.705Z,77.92
2022-11-08T16:05:32.535Z,77.11
2022-11-08T16:08:00.132Z,77.37
2022-11-08T16:10:46.558Z,77.86
2022-11-08T16:13:19.560Z,77.88
2022-11-08T16:15:48.141Z,77.52
2022-11-08T16:18:16.346Z,77.24
2022-11-08T16:20:43.828Z,76.68
2022-11-08T16:23:11.589Z,76.79
2022-11-08T16:25:39.880Z,77.41
2022-11-08T16:28:14.671Z,77.71
2022-11-08T16:30:46.426Z,77.49
2022-11-08T16:33:18.555Z,77.46
2022-11-08T16:35:45.916Z,76.52
2022-11-08T16:38:13.146Z,77.21
2022-11-08T16:40:42.927Z,77.31
2022-11-08T16:43:11.500Z,76.47
2022-11-08T16:46:03.923Z,76.71
2022-11-08T16:48:26.739Z,76.34
2022-11-08T16:51:01.444Z,76.35
2022-11-08T16:53:32.491Z,76.42
2022-11-08T16:55:59.631Z,76.26
2022-11-08T16:58:28.197Z,76.05
2022-11-08T17:00:56.090Z,75.98
2022-11-08T17:03:24.743Z,75.89
2022-11-08T17:05:52.282Z,75.33
2022-11-08T17:08:20.526Z,76.11
2022-11-08T17:10:47.746Z,75.73
2022-11-08T17:13:16.024Z,75.75
2022-11-08T17:15:43.380Z,75.86
2022-11-08T17:18:12.105Z,75.82
2022-11-08T17:20:39.702Z,75.18
2022-11-08T17:23:07.332Z,75.97
2022-11-08T17:25:35.144Z,75.90
2022-11-08T17:28:02.558Z,76.22
2022-11-08T17:30:29.685Z,75.88
2022-11-08T17:32:56.936Z,75.54
2022-11-08T17:35:24.186Z,75.53
2022-11-08T17:37:53.459Z,75.85
2022-11-08T17:40:20.776Z,75.69
2022-11-08T17:42:48.354Z,75.99
2022-11-08T17:45:15.372Z,75.40
2022-11-08T17:47:42.554Z,76.32
2022-11-08T17:50:10.232Z,76.07
2022-11-08T17:52:40.300Z,75.26
2022-11-08T17:55:07.606Z,75.56
2022-11-08T17:57:34.966Z,75.41
2022-11-08T18:00:02.311Z,74.91
2022-11-08T18:02:29.732Z,75.22
2022-11-08T18:04:57.414Z,74.72
2022-11-08T18:07:24.894Z,74.95
2022-11-08T18:09:51.788Z,74.91
2022-11-08T18:12:19.543Z,74.99
2022-11-08T18:14:46.404Z,74.65
2022-11-08T18:17:13.593Z,74.35
2022-11-08T18:19:40.504Z,74.28
2022-11-08T18:22:07.712Z,74.37
2022-11-08T18:24:34.656Z,74.63
2022-11-08T18:27:02.025Z,75.00
2022-11-08T18:29:28.872Z,75.23
2022-11-08T18:31:56.125Z,74.61
2022-11-08T18:34:22.950Z,74.74
2022-11-08T18:36:50.159Z,74.43
2022-11-08T18:39:19.722Z,74.62
2022-11-08T18:41:47.382Z,75.25
2022-11-08T18:44:14.313Z,74.45
2022-11-08T18:46:43.470Z,74.57
2022-11-08T18:49:11.207Z,74.55
2022-11-08T18:51:52.100Z,74.36
2022-11-08T18:54:20.056Z,73.90
2022-11-08T18:56:47.283Z,74.62
2022-11-08T18:59:14.484Z,74.78
2022-11-08T19:01:41.809Z,75.26
2022-11-08T19:04:08.921Z,75.01
2022-11-08T19:06:37.497Z,74.98
2022-11-08T19:09:04.705Z,74.83
2022-11-08T19:11:31.903Z,75.55
2022-11-08T19:13:59.228Z,75.93
2022-11-08T19:16:26.554Z,75.70
2022-11-08T19:18:53.593Z,75.08
2022-11-08T19:21:25.054Z,75.23
2022-11-08T19:23:53.112Z,75.54
2022-11-08T19:26:22.494Z,75.06
2022-11-08T19:28:50.365Z,75.51
2022-11-08T19:31:19.122Z,75.06
2022-11-08T19:33:47.061Z,74.57
2022-11-08T19:36:15.899Z,74.95
2022-11-08T19:38:43.008Z,75.43
2022-11-08T19:41:20.431Z,75.36
2022-11-08T19:43:47.988Z,75.58
2022-11-08T19:46:20.086Z,76.06
2022-11-08T19:48:49.500Z,75.35
2022-11-08T19:51:18.364Z,74.96
2022-11-08T19:53:45.673Z,74.99
2022-11-08T19:56:17.696Z,75.25
2022-11-08T19:58:45.166Z,74.80
2022-11-08T20:01:23.117Z,74.83
2022-11-08T20:03:50.454Z,75.18
2022-11-08T20:06:19.631Z,74.89
2022-11-08T20:08:51.166Z,75.48
2022-11-08T20:11:20.004Z,75.70
2022-11-08T20:13:47.335Z,75.60
2022-11-08T20:16:22.675Z,76.07
2022-11-08T20:18:50.024Z,75.58
2022-11-08T20:21:18.090Z,76.04
2022-11-08T20:23:46.223Z,75.34
2022-11-08T20:26:16.651Z,75.93
2022-11-08T20:28:55.203Z,76.94
2022-11-08T20:31:24.245Z,76.98
2022-11-08T20:33:53.097Z,76.98
2022-11-08T20:36:22.980Z,76.27
2022-11-08T20:38:50.832Z,76.13
2022-11-08T20:41:18.597Z,76.61
2022-11-08T20:43:47.736Z,77.53
2022-11-08T20:46:15.976Z,76.60
2022-11-08T20:48:44.341Z,76.90
2022-11-08T20:51:13.322Z,75.98
2022-11-08T20:53:40.712Z,77.33
2022-11-08T20:56:09.576Z,76.37
2022-11-08T20:58:38.007Z,76.22
2022-11-08T21:01:06.738Z,76.06
2022-11-08T21:03:34.588Z,76.03
2022-11-08T21:06:05.990Z,76.67
2022-11-08T21:11:21.894Z,76.16
2022-11-08T21:13:49.613Z,76.59
2022-11-08T21:16:47.082Z,76.29
2022-11-08T21:19:04.411Z,76.42
2022-11-08T21:21:31.980Z,75.87
2022-11-08T21:23:59.720Z,76.08
2022-11-08T21:26:26.766Z,76.54
2022-11-08T21:28:54.402Z,76.67
2022-11-08T21:31:21.524Z,76.95
2022-11-08T21:33:48.902Z,76.47
2022-11-08T21:36:17.467Z,75.77
2022-11-08T21:38:44.735Z,76.72
2022-11-08T21:41:12.539Z,76.71
2022-11-08T21:43:45.372Z,76.59
2022-11-08T21:46:15.253Z,76.31
2022-11-08T21:48:42.931Z,76.50
2022-11-08T21:51:10.390Z,75.97
2022-11-08T21:53:47.923Z,77.25
2022-11-08T21:56:19.800Z,77.15
2022-11-08T21:58:47.259Z,77.49
2022-11-08T22:01:14.595Z,77.07
2022-11-08T22:03:41.845Z,77.36
2022-11-08T22:06:08.867Z,76.93
2022-11-08T22:08:36.847Z,75.63
2022-11-08T22:11:04.233Z,75.76
2022-11-08T22:13:31.466Z,76.44
2022-11-08T22:15:58.353Z,75.61
2022-11-08T22:18:43.475Z,76.29
2022-11-08T22:21:31.952Z,75.62
2022-11-08T22:23:59.218Z,75.77
2022-11-08T22:26:26.064Z,75.53
2022-11-08T22:28:53.258Z,75.62
2022-11-08T22:31:21.118Z,75.70
2022-11-08T22:33:48.015Z,74.94
2022-11-08T22:36:16.137Z,74.41
2022-11-08T22:38:42.988Z,73.73
2022-11-08T22:41:10.276Z,74.44
2022-11-08T22:43:37.562Z,74.23
2022-11-08T22:46:04.795Z,74.94
2022-11-08T22:48:31.725Z,74.28
2022-11-08T22:50:59.380Z,74.42
2022-11-08T22:53:26.387Z,73.71
2022-11-08T22:55:53.667Z,74.65
2022-11-08T22:58:20.584Z,74.08
2022-11-08T23:00:49.204Z,74.41
2022-11-08T23:03:16.590Z,74.26
2022-11-08T23:05:48.819Z,75.61
2022-11-08T23:08:16.098Z,74.89
2022-11-08T23:11:01.736Z,74.93
2022-11-08T23:13:47.307Z,75.04
2022-11-08T23:16:35.266Z,75.26
2022-11-08T23:19:21.524Z,75.53
2022-11-08T23:22:07.197Z,75.44
2022-11-08T23:24:34.139Z,76.27
2022-11-08T23:27:20.575Z,75.76
2022-11-08T23:30:06.583Z,76.06
2022-11-08T23:32:34.536Z,75.64
2022-11-08T23:35:01.697Z,74.25
2022-11-08T23:37:29.795Z,74.59
2022-11-08T23:40:15.109Z,74.99
2022-11-08T23:43:00.747Z,74.72
2022-11-08T23:45:27.745Z,75.33
2022-11-08T23:47:55.126Z,74.27
2022-11-08T23:50:22.199Z,74.04
2022-11-08T23:52:49.512Z,73.51
2022-11-08T23:55:16.418Z,74.05
2022-11-08T23:57:43.623Z,73.98
